Time;durP1;ratioP1;P1;durP2;ratioP2;P2;SDS_P1;SDS_P2;PMS_P1;PMS_P2;Temp;Humidity;BMP_temperature;BMP_pressure;BME280_temperature;BME280_humidity;BME280_pressure;Samples;Min_cycle;Max_cycle;Signal;HPM_P1;HPM_P2
2021/03/24 00:00:31;;;;;;;16.30;9.20;;;;;;;4.81;67.84;100545.22;5095365;28;20116;-68
2021/03/24 00:02:58;;;;;;;16.38;9.15;;;;;;;4.80;68.36;100553.19;5095544;28;20040;-68
2021/03/24 00:05:28;;;;;;;15.93;8.18;;;;;;;4.91;68.57;100577.50;5095614;28;20461;-68
2021/03/24 00:07:53;;;;;;;15.07;8.55;;;;;;;4.83;68.69;100571.63;5095364;28;20449;-71
2021/03/24 00:10:22;;;;;;;16.17;9.18;;;;;;;4.84;68.78;100574.22;5095751;28;20032;-70
2021/03/24 00:12:48;;;;;;;16.27;8.75;;;;;;;4.81;69.15;100565.50;5095399;28;20024;-70
2021/03/24 00:15:14;;;;;;;17.23;9.10;;;;;;;4.62;69.39;100543.19;5077467;28;20040;-69
2021/03/24 00:17:39;;;;;;;18.25;9.98;;;;;;;4.79;69.00;100572.63;5093638;28;20048;-70
2021/03/24 00:20:09;;;;;;;16.67;9.57;;;;;;;4.73;69.28;100572.78;5077802;28;20042;-68
2021/03/24 00:22:35;;;;;;;14.07;7.72;;;;;;;4.75;69.60;100560.44;5095478;28;20490;-80
2021/03/24 00:25:01;;;;;;;14.63;9.02;;;;;;;4.30;69.43;100484.31;5094585;28;20040;-68
2021/03/24 00:27:26;;;;;;;14.30;8.38;;;;;;;4.66;69.68;100552.78;5095488;28;20036;-67
2021/03/24 00:29:52;;;;;;;14.73;8.68;;;;;;;4.47;70.20;100534.84;5093788;28;20040;-67
2021/03/24 00:32:17;;;;;;;16.85;9.27;;;;;;;4.46;70.21;100541.06;5095106;28;20036;-66
2021/03/24 00:34:44;;;;;;;15.25;8.50;;;;;;;4.45;70.16;100552.53;5095136;28;20028;-67
2021/03/24 00:37:10;;;;;;;16.45;9.02;;;;;;;4.54;70.40;100562.81;5095283;28;20080;-66
2021/03/24 00:39:36;;;;;;;16.45;9.07;;;;;;;4.47;70.45;100566.56;5095065;28;20032;-77
2021/03/24 00:42:02;;;;;;;14.98;9.00;;;;;;;4.29;70.90;100546.84;5094032;28;20040;-66
2021/03/24 00:44:28;;;;;;;15.20;9.02;;;;;;;4.31;70.94;100552.06;5094059;28;20039;-67
2021/03/24 00:46:56;;;;;;;15.55;9.32;;;;;;;4.40;70.98;100578.19;5094623;28;20162;-67
2021/03/24 00:49:25;;;;;;;17.65;8.70;;;;;;;4.22;70.90;100552.34;5093987;28;20068;-69
2021/03/24 00:51:51;;;;;;;16.88;9.40;;;;;;;4.20;71.29;100556.81;5093391;28;20082;-69
2021/03/24 00:54:16;;;;;;;16.42;8.75;;;;;;;4.28;71.12;100563.59;5094849;28;20472;-67
2021/03/24 00:56:42;;;;;;;17.05;9.73;;;;;;;4.07;71.61;100555.44;5093587;28;20031;-68
2021/03/24 00:59:07;;;;;;;18.38;10.35;;;;;;;4.32;71.38;100585.47;5093608;28;20060;-67
2021/03/24 01:01:33;;;;;;;18.20;10.48;;;;;;;4.17;71.23;100557.75;5076672;28;20479;-67
2021/03/24 01:03:58;;;;;;;17.35;10.05;;;;;;;4.30;71.41;100584.66;5094213;28;20043;-67
2021/03/24 01:06:24;;;;;;;18.63;10.98;;;;;;;4.26;71.33;100572.47;5095113;28;20476;-67
2021/03/24 01:08:49;;;;;;;18.45;10.60;;;;;;;4.25;71.65;100578.66;5094355;28;20386;-68
2021/03/24 01:11:15;;;;;;;18.35;10.10;;;;;;;3.85;71.76;100508.50;5094488;28;20035;-68
2021/03/24 01:13:40;;;;;;;18.23;10.15;;;;;;;4.21;72.04;100563.81;5094340;28;20044;-68
2021/03/24 01:16:06;;;;;;;20.65;11.05;;;;;;;4.27;71.59;100563.63;5093020;28;20061;-67
2021/03/24 01:18:32;;;;;;;16.77;10.55;;;;;;;4.37;71.09;100564.22;5092887;28;20064;-66
2021/03/24 01:20:57;;;;;;;17.90;9.82;;;;;;;4.24;71.04;100537.31;5094101;28;20115;-65
2021/03/24 01:23:23;;;;;;;19.65;10.93;;;;;;;4.39;71.17;100552.69;5094269;28;20368;-65
2021/03/24 01:25:49;;;;;;;17.50;10.40;;;;;;;4.02;70.64;100474.59;5075884;28;20089;-66
2021/03/24 01:28:21;;;;;;;18.38;11.00;;;;;;;4.60;70.45;100559.97;5094284;28;20085;-66
2021/03/24 01:30:47;;;;;;;20.20;10.57;;;;;;;4.47;70.34;100526.06;5093666;28;20497;-69
2021/03/24 01:33:13;;;;;;;20.48;11.32;;;;;;;4.67;70.31;100555.38;5093009;28;20032;-69
2021/03/24 01:35:39;;;;;;;20.63;10.93;;;;;;;4.73;70.27;100559.59;5094216;28;20115;-69
2021/03/24 01:38:06;;;;;;;21.52;12.02;;;;;;;4.63;70.22;100539.63;5092617;28;20067;-69
2021/03/24 01:40:38;;;;;;;21.20;11.90;;;;;;;4.77;69.97;100561.22;5094092;28;20549;-68
2021/03/24 01:43:09;;;;;;;19.35;11.02;;;;;;;4.77;70.17;100564.75;5093657;28;20074;-67
2021/03/24 01:45:35;;;;;;;18.30;10.75;;;;;;;4.47;70.31;100523.41;5094098;28;20064;-67
2021/03/24 01:48:04;;;;;;;20.50;11.45;;;;;;;4.75;70.36;100565.72;5092364;28;20067;-68
2021/03/24 01:50:36;;;;;;;21.60;12.30;;;;;;;4.65;70.05;100540.47;5093826;28;20032;-68
2021/03/24 01:53:02;;;;;;;20.92;11.15;;;;;;;4.86;69.95;100575.03;5093310;28;20089;-69
2021/03/24 01:55:29;;;;;;;20.27;11.63;;;;;;;4.83;70.01;100558.41;5093680;28;20040;-68
2021/03/24 01:57:55;;;;;;;21.35;11.38;;;;;;;4.80;70.17;100562.00;5093178;28;20544;-69
2021/03/24 02:00:31;;;;;;;22.05;12.13;;;;;;;4.73;70.47;100556.94;5075803;28;20036;-68
2021/03/24 02:02:57;;;;;;;21.88;12.30;;;;;;;4.64;70.17;100530.84;5093358;28;20027;-67
2021/03/24 02:05:22;;;;;;;21.02;12.07;;;;;;;4.67;70.75;100557.16;5093571;28;20119;-67
2021/03/24 02:07:52;;;;;;;23.15;12.15;;;;;;;4.70;70.59;100562.34;5091859;28;20035;-68
2021/03/24 02:10:40;;;;;;;20.88;11.52;;;;;;;4.66;70.82;100568.63;5093382;28;20031;-68
2021/03/24 02:13:09;;;;;;;21.13;11.88;;;;;;;4.42;71.06;100531.47;5083454;28;20044;-68
2021/03/24 02:15:55;;;;;;;19.45;11.60;;;;;;;4.29;71.38;100527.47;5093551;28;20039;-68
2021/03/24 02:18:23;;;;;;;20.13;11.75;;;;;;;4.48;71.62;100570.91;5093265;28;20516;-68
2021/03/24 02:21:07;;;;;;;24.10;13.15;;;;;;;4.20;71.54;100531.25;5092801;28;20028;-68
2021/03/24 02:23:46;;;;;;;24.20;12.65;;;;;;;4.30;71.96;100547.69;5093404;28;20036;-67
2021/03/24 02:26:43;;;;;;;24.77;11.98;;;;;;;4.37;71.82;100559.81;5093700;28;20032;-68
2021/03/24 02:29:12;;;;;;;21.58;11.57;;;;;;;4.41;71.54;100560.56;5088311;28;20040;-68
2021/03/24 02:31:39;;;;;;;24.42;12.98;;;;;;;4.37;71.77;100559.81;5093028;28;20032;-69
2021/03/24 02:34:09;;;;;;;22.70;12.52;;;;;;;4.45;71.75;100573.66;5091489;28;20084;-69
2021/03/24 02:36:37;;;;;;;24.08;13.15;;;;;;;4.36;71.56;100551.94;5093372;28;20067;-70
2021/03/24 02:39:08;;;;;;;23.55;13.20;;;;;;;4.12;71.35;100516.56;5092783;28;20032;-68
2021/03/24 02:41:34;;;;;;;27.27;13.75;;;;;;;4.54;71.43;100575.16;5093031;28;20490;-68
2021/03/24 02:44:00;;;;;;;23.55;13.50;;;;;;;4.60;71.03;100582.88;5091246;28;20051;-69
2021/03/24 02:46:27;;;;;;;24.20;13.80;;;;;;;4.47;71.41;100587.69;5092911;28;20028;-69
2021/03/24 02:48:53;;;;;;;25.08;13.25;;;;;;;4.53;71.25;100583.97;5092485;28;20528;-68
2021/03/24 02:51:23;;;;;;;24.70;14.23;;;;;;;4.57;71.17;100589.13;5093151;28;20032;-66
2021/03/24 02:53:49;;;;;;;24.63;14.23;;;;;;;4.53;71.03;100589.25;5092462;28;20055;-68
2021/03/24 02:56:15;;;;;;;22.92;12.98;;;;;;;4.58;70.97;100595.28;5092812;28;20448;-67
2021/03/24 02:58:41;;;;;;;24.52;13.63;;;;;;;4.46;71.00;100578.03;5092866;28;20031;-67
2021/03/24 03:01:20;;;;;;;24.70;13.32;;;;;;;4.60;70.96;100598.75;5091270;28;20028;-66
2021/03/24 03:04:05;;;;;;;25.95;13.40;;;;;;;4.60;71.08;100598.75;5092506;28;20081;-72
2021/03/24 03:06:30;;;;;;;22.92;13.27;;;;;;;4.59;70.89;100594.38;5092741;28;20039;-68
2021/03/24 03:09:01;;;;;;;24.02;13.15;;;;;;;4.42;70.83;100573.72;5091191;28;20032;-67
2021/03/24 03:11:36;;;;;;;24.42;13.90;;;;;;;4.58;71.08;100596.16;5092799;28;20031;-66
2021/03/24 03:14:08;;;;;;;22.67;12.52;;;;;;;4.63;70.98;100597.78;5092663;28;20040;-67
2021/03/24 03:16:51;;;;;;;24.48;13.48;;;;;;;4.63;70.61;100579.28;5092962;28;20032;-67
2021/03/24 03:19:38;;;;;;;22.88;14.25;;;;;;;4.82;70.23;100598.94;5092931;28;20540;-66
2021/03/24 03:22:26;;;;;;;25.80;13.73;;;;;;;4.91;70.16;100608.38;5085286;28;20040;-67
2021/03/24 03:24:57;;;;;;;23.17;13.18;;;;;;;4.71;70.22;100569.34;5096064;28;20493;-66
2021/03/24 03:27:24;;;;;;;24.48;12.98;;;;;;;4.79;70.19;100586.69;5097044;28;20024;-66
2021/03/24 03:29:53;;;;;;;23.40;13.25;;;;;;;4.93;70.02;100607.44;5096720;28;20501;-67
2021/03/24 03:32:22;;;;;;;23.13;12.95;;;;;;;4.97;70.07;100609.03;5096282;28;20390;-67
2021/03/24 03:34:52;;;;;;;23.80;13.15;;;;;;;5.03;70.06;100606.22;5096074;28;20032;-79
2021/03/24 03:37:18;;;;;;;22.83;12.50;;;;;;;4.80;69.98;100569.06;5095092;28;20071;-67
2021/03/24 03:39:46;;;;;;;22.50;12.65;;;;;;;4.93;70.15;100591.56;5096185;28;20032;-68
2021/03/24 03:42:12;;;;;;;21.23;11.90;;;;;;;5.03;70.12;100606.22;5095996;28;20513;-67
2021/03/24 03:44:38;;;;;;;20.75;12.30;;;;;;;5.07;69.84;100601.69;5096085;28;20032;-68
2021/03/24 03:47:10;;;;;;;20.42;12.18;;;;;;;4.85;70.04;100572.44;5095638;28;20058;-68
2021/03/24 03:49:38;;;;;;;19.77;11.77;;;;;;;5.08;69.85;100600.78;5096156;28;20028;-68
2021/03/24 03:52:26;;;;;;;20.73;12.00;;;;;;;4.99;70.10;100603.72;5094407;28;20081;-68
2021/03/24 03:55:13;;;;;;;21.02;12.02;;;;;;;5.01;70.09;100610.66;5095662;28;20032;-67
2021/03/24 03:57:50;;;;;;;22.38;12.20;;;;;;;4.94;70.10;100609.16;5096003;28;20530;-67
2021/03/24 04:00:38;;;;;;;20.88;12.40;;;;;;;4.92;70.56;100610.97;5096194;28;20036;-68
2021/03/24 04:03:19;;;;;;;19.80;12.15;;;;;;;4.85;70.59;100610.31;5095664;28;20435;-68
2021/03/24 04:05:57;;;;;;;19.27;11.43;;;;;;;4.78;70.69;100618.47;5094528;28;20390;-68
2021/03/24 04:08:27;;;;;;;21.85;12.30;;;;;;;4.70;71.14;100615.19;5095909;28;20028;-68
2021/03/24 04:11:01;;;;;;;20.75;11.90;;;;;;;4.74;70.92;100620.34;5094216;28;20039;-68
2021/03/24 04:13:29;;;;;;;20.83;12.30;;;;;;;4.79;70.81;100631.63;5095747;28;20111;-67
2021/03/24 04:16:00;;;;;;;20.48;11.50;;;;;;;4.81;70.78;100628.94;5095340;28;20040;-68
2021/03/24 04:18:32;;;;;;;18.80;11.68;;;;;;;4.67;70.63;100610.88;5095551;28;20388;-71
2021/03/24 04:20:59;;;;;;;19.50;11.60;;;;;;;4.40;70.91;100565.00;5094051;28;20028;-71
2021/03/24 04:23:28;;;;;;;20.00;12.18;;;;;;;4.74;70.69;100622.13;5094526;28;20040;-71
2021/03/24 04:26:26;;;;;;;19.40;11.00;;;;;;;4.74;71.03;100641.47;5095049;28;20031;-68
2021/03/24 04:28:57;;;;;;;18.88;11.55;;;;;;;4.55;71.09;100606.81;5073771;28;20444;-70
2021/03/24 04:31:25;;;;;;;22.60;11.77;;;;;;;4.72;70.92;100635.34;5093152;28;20020;-67
2021/03/24 04:33:51;;;;;;;18.98;11.43;;;;;;;4.74;70.72;100636.19;5093904;28;20064;-78
2021/03/24 04:36:54;;;;;;;20.52;11.55;;;;;;;4.81;70.39;100650.06;5094076;28;20047;-66
2021/03/24 04:39:34;;;;;;;22.83;11.75;;;;;;;4.73;70.64;100645.03;5085664;28;20043;-66
2021/03/24 04:42:05;;;;;;;20.02;11.88;;;;;;;4.81;70.20;100655.34;5095012;28;20031;-69
2021/03/24 04:44:35;;;;;;;23.23;12.75;;;;;;;4.88;70.12;100659.56;5095140;28;20071;-68
2021/03/24 04:47:18;;;;;;;20.95;11.48;;;;;;;4.81;69.86;100655.34;5094841;28;20383;-68
2021/03/24 04:49:59;;;;;;;19.25;10.55;;;;;;;4.86;70.44;100664.03;5095260;28;20024;-68
2021/03/24 04:52:26;;;;;;;21.98;11.85;;;;;;;4.84;70.05;100664.09;5094802;28;20028;-67
2021/03/24 04:54:54;;;;;;;18.83;11.43;;;;;;;4.77;69.89;100641.38;5094476;28;20036;-77
2021/03/24 04:57:24;;;;;;;22.95;11.65;;;;;;;4.88;70.03;100659.56;5093745;28;20043;-67
2021/03/24 04:59:56;;;;;;;20.17;11.90;;;;;;;4.95;69.42;100663.75;5094878;28;20028;-66
2021/03/24 05:02:27;;;;;;;19.43;11.53;;;;;;;4.99;69.53;100664.50;5094716;28;20386;-69
2021/03/24 05:05:17;;;;;;;20.33;11.90;;;;;;;5.00;69.34;100667.09;5093375;28;20035;-76
2021/03/24 05:08:13;;;;;;;19.15;11.70;;;;;;;4.78;69.13;100613.16;5094725;28;20466;-68
2021/03/24 05:10:39;;;;;;;23.02;11.75;;;;;;;5.03;68.66;100655.59;5094899;28;20020;-67
2021/03/24 05:13:13;;;;;;;20.27;11.25;;;;;;;5.14;68.35;100654.34;5092932;28;20498;-67
2021/03/24 05:15:43;;;;;;;19.80;11.40;;;;;;;5.23;68.08;100662.91;5094204;28;20032;-71
2021/03/24 05:18:13;;;;;;;19.58;11.70;;;;;;;5.21;67.97;100664.69;5094116;28;20048;-70
2021/03/24 05:20:52;;;;;;;20.40;11.77;;;;;;;5.26;67.55;100668.09;5094261;28;20050;-70
2021/03/24 05:23:19;;;;;;;21.17;11.80;;;;;;;5.28;67.53;100669.75;5093960;28;20036;-74
2021/03/24 05:25:52;;;;;;;17.52;11.07;;;;;;;5.30;67.47;100667.06;5094124;28;20039;-69
2021/03/24 05:28:25;;;;;;;16.27;10.20;;;;;;;5.35;67.31;100668.66;5092482;28;20058;-73
2021/03/24 05:31:01;;;;;;;19.45;11.43;;;;;;;5.20;67.38;100647.09;5094152;28;20040;-71
2021/03/24 05:33:30;;;;;;;16.77;10.45;;;;;;;5.01;66.95;100604.50;5093062;28;20028;-70
2021/03/24 05:35:59;;;;;;;17.92;10.90;;;;;;;5.22;67.43;100661.16;5092681;28;20077;-78
2021/03/24 05:38:32;;;;;;;18.52;10.70;;;;;;;5.39;67.05;100678.22;5093790;28;20032;-71
2021/03/24 05:41:16;;;;;;;18.20;10.30;;;;;;;5.36;66.84;100678.31;5093586;28;20032;-71
2021/03/24 05:43:50;;;;;;;;;;;;;;;5.32;67.07;100683.78;5093920;28;20388;-70
2021/03/24 05:46:22;;;;;;;17.40;9.80;;;;;;;5.24;67.44;100691.06;5092633;28;20790;-68
2021/03/24 05:49:00;;;;;;;18.15;9.35;;;;;;;5.31;67.24;100682.91;5093880;28;20036;-70
2021/03/24 05:51:34;;;;;;;18.48;9.82;;;;;;;5.33;67.32;100680.22;5093723;28;20024;-75
2021/03/24 05:54:38;;;;;;;15.95;9.77;;;;;;;5.35;67.19;100694.25;5093477;28;20060;-80
2021/03/24 05:57:12;;;;;;;18.23;9.87;;;;;;;5.32;67.47;100705.78;5093371;28;20169;-75
2021/03/24 05:59:42;;;;;;;18.38;10.15;;;;;;;5.42;67.12;100685.22;5092323;28;20485;-77
2021/03/24 06:02:23;;;;;;;16.58;9.50;;;;;;;5.51;66.78;100687.56;5093153;28;20085;-76
2021/03/24 06:04:59;;;;;;;17.70;10.07;;;;;;;5.17;66.63;100627.78;5093530;28;20170;-75
2021/03/24 06:08:07;;;;;;;17.65;10.23;;;;;;;5.05;66.88;100627.31;5093225;28;20082;-74
2021/03/24 06:10:47;;;;;;;17.30;10.43;;;;;;;5.44;66.95;100686.88;5093393;28;20042;-76
2021/03/24 06:13:27;;;;;;;17.23;10.05;;;;;;;5.47;66.85;100684.13;5093210;28;20081;-77
2021/03/24 06:16:07;;;;;;;16.65;10.07;;;;;;;5.55;66.58;100691.81;5093438;28;20032;-75
2021/03/24 06:18:53;;;;;;;13.98;8.23;;;;;;;5.56;66.53;100693.56;5093726;28;20048;-76
2021/03/24 06:21:28;;;;;;;17.50;10.05;;;;;;;5.62;66.36;100701.31;5093349;28;20031;-76
2021/03/24 06:24:17;;;;;;;14.55;9.27;;;;;;;5.64;66.37;100696.81;5093345;28;20032;-76
2021/03/24 06:26:50;;;;;;;16.50;9.52;;;;;;;5.69;66.14;100686.97;5093265;28;20032;-75
2021/03/24 06:29:35;;;;;;;17.08;9.93;;;;;;;5.65;65.95;100672.06;5093279;28;20386;-76
2021/03/24 06:32:21;;;;;;;15.55;9.52;;;;;;;5.89;65.44;100701.31;5092914;28;20028;-75
2021/03/24 06:35:08;;;;;;;15.85;10.00;;;;;;;6.02;65.05;100703.50;5093422;28;20465;-75
2021/03/24 06:37:57;;;;;;;17.30;10.48;;;;;;;6.03;64.81;100699.94;5093045;28;20500;-75
2021/03/24 06:40:47;;;;;;;16.88;10.32;;;;;;;6.11;64.86;100707.63;5053924;28;20093;-76
2021/03/24 06:43:15;;;;;;;17.15;10.10;;;;;;;6.28;64.24;100715.84;5092838;28;20036;-75
2021/03/24 06:45:59;;;;;;;19.10;10.43;;;;;;;6.37;63.94;100708.47;5093064;28;20039;-75
2021/03/24 06:48:46;;;;;;;16.20;10.32;;;;;;;6.39;63.82;100719.91;5092937;28;20032;-75
2021/03/24 06:51:30;;;;;;;15.77;10.32;;;;;;;6.75;62.53;100715.91;5091475;28;20028;-75
2021/03/24 06:54:14;;;;;;;19.70;9.68;;;;;;;6.85;62.05;100719.97;5092575;28;20117;-76
2021/03/24 06:57:11;;;;;;;18.58;11.10;;;;;;;6.91;62.35;100718.84;5097543;28;20039;-74
2021/03/24 07:00:02;;;;;;;17.40;9.82;;;;;;;7.02;61.51;100721.09;5097198;28;20028;-76
2021/03/24 07:03:02;;;;;;;18.30;10.20;;;;;;;6.99;61.38;100729.19;5097628;28;20359;-76
2021/03/24 07:05:39;;;;;;;15.23;9.52;;;;;;;7.15;61.00;100735.66;5096935;28;20482;-76
2021/03/24 07:08:31;;;;;;;19.20;10.38;;;;;;;6.91;61.37;100710.91;5095777;28;20043;-76
2021/03/24 07:11:39;;;;;;;17.00;9.73;;;;;;;7.12;60.83;100730.44;5097180;28;20028;-76
2021/03/24 07:14:38;;;;;;;15.73;9.95;;;;;;;7.20;60.63;100723.03;5096584;28;20044;-74
2021/03/24 07:17:16;;;;;;;18.60;10.25;;;;;;;7.18;60.38;100715.16;5080938;28;20051;-77
2021/03/24 07:20:39;;;;;;;18.70;10.25;;;;;;;7.21;60.30;100703.53;5096763;28;20069;-76
2021/03/24 07:23:35;;;;;;;14.50;9.93;;;;;;;7.23;60.59;100733.53;5096435;28;20059;-77
2021/03/24 07:26:22;;;;;;;20.92;10.80;;;;;;;7.32;60.45;100738.47;5095366;28;20028;-75
2021/03/24 07:29:15;;;;;;;16.63;9.68;;;;;;;7.30;60.26;100735.03;5096638;28;20036;-76
2021/03/24 07:31:59;;;;;;;21.13;9.70;;;;;;;7.30;60.14;100742.13;5096647;28;20494;-77
2021/03/24 07:34:37;;;;;;;17.80;9.98;;;;;;;7.30;60.18;100740.34;5096245;28;20083;-76
2021/03/24 07:37:08;;;;;;;16.08;10.13;;;;;;;7.22;60.32;100741.56;5096436;28;20051;-74
2021/03/24 07:39:58;;;;;;;15.38;9.18;;;;;;;7.22;59.42;100718.53;5096172;28;20032;-76
2021/03/24 07:43:03;;;;;;;16.27;9.35;;;;;;;7.56;58.77;100751.72;5096135;28;20471;-76
2021/03/24 07:45:47;;;;;;;16.25;9.07;;;;;;;7.58;57.73;100755.19;5095940;28;20040;-75
2021/03/24 07:48:27;;;;;;;15.07;8.98;;;;;;;7.69;58.31;100759.13;5096144;28;20032;-76
2021/03/24 07:51:20;;;;;;;15.98;8.73;;;;;;;7.81;57.88;100762.22;5096381;28;20036;-74
2021/03/24 07:54:04;;;;;;;14.33;8.97;;;;;;;7.74;57.59;100745.69;5096247;28;20027;-75
2021/03/24 07:56:40;;;;;;;13.68;8.52;;;;;;;7.93;57.36;100765.25;5095865;28;20241;-76
2021/03/24 07:59:18;;;;;;;18.15;9.52;;;;;;;7.96;57.16;100773.09;5096094;28;20024;-81
2021/03/24 08:01:59;;;;;;;23.63;10.50;;;;;;;7.86;57.65;100771.75;5096318;28;20039;-75
2021/03/24 08:05:01;;;;;;;22.17;9.25;;;;;;;7.79;57.64;100778.22;5095590;28;20032;-75
2021/03/24 08:07:35;;;;;;;19.23;10.48;;;;;;;7.51;57.78;100751.03;5095919;28;20602;-76
2021/03/24 08:10:33;;;;;;;18.20;10.10;;;;;;;7.84;57.41;100776.25;5094649;28;20028;-75
2021/03/24 08:13:35;;;;;;;16.52;8.75;;;;;;;7.81;57.05;100746.28;5096048;28;20075;-76
2021/03/24 08:16:23;;;;;;;25.00;9.07;;;;;;;8.12;56.90;100773.34;5095994;28;20554;-77
2021/03/24 08:19:22;;;;;;;16.67;9.98;;;;;;;8.29;56.21;100777.91;5095693;28;20475;-75
2021/03/24 08:22:04;;;;;;;20.60;10.50;;;;;;;8.33;56.47;100768.91;5096078;28;20118;-77
2021/03/24 08:24:51;;;;;;;16.25;9.65;;;;;;;8.31;56.24;100768.09;5094300;28;20039;-76
2021/03/24 08:27:26;;;;;;;21.10;10.55;;;;;;;7.97;57.18;100748.25;5094107;28;20031;-75
2021/03/24 08:29:54;;;;;;;16.25;9.52;;;;;;;8.23;56.93;100765.75;5095534;28;20487;-75
2021/03/24 08:32:29;;;;;;;18.88;10.25;;;;;;;8.08;57.14;100765.53;5095417;28;20406;-76
2021/03/24 08:35:19;;;;;;;18.30;9.88;;;;;;;8.17;56.72;100773.13;5095762;28;20364;-75
2021/03/24 08:38:06;;;;;;;16.02;8.88;;;;;;;8.32;56.04;100769.84;5095620;28;20040;-75
2021/03/24 08:40:31;;;;;;;20.13;9.50;;;;;;;8.20;56.25;100765.00;5095256;28;20032;-76
2021/03/24 08:43:20;;;;;;;19.73;9.93;;;;;;;8.29;56.37;100761.97;5095306;28;20536;-76
2021/03/24 08:45:49;;;;;;;15.75;9.13;;;;;;;8.44;55.76;100768.47;5082945;28;20044;-75
2021/03/24 08:48:22;;;;;;;16.10;9.00;;;;;;;8.30;55.39;100745.13;5095193;28;20078;-76
2021/03/24 08:51:17;;;;;;;18.73;9.63;;;;;;;8.37;55.53;100762.53;5095677;28;20032;-75
2021/03/24 08:54:00;;;;;;;17.65;8.80;;;;;;;8.22;55.53;100748.09;5093600;28;20085;-76
2021/03/24 08:56:51;;;;;;;16.13;8.67;;;;;;;8.35;55.69;100764.41;5094870;28;20055;-76
2021/03/24 08:59:35;;;;;;;16.05;9.32;;;;;;;8.35;55.33;100767.06;5093676;28;20391;-75
2021/03/24 09:02:42;;;;;;;14.88;9.38;;;;;;;8.35;55.64;100763.53;5094948;28;20119;-75
2021/03/24 09:05:41;;;;;;;17.20;9.70;;;;;;;8.41;55.54;100750.00;5073735;28;20040;-77
2021/03/24 09:08:28;;;;;;;19.50;12.00;;;;;;;8.53;56.17;100763.63;5070989;28;20069;-76
2021/03/24 09:11:25;;;;;;;21.25;11.95;;;;;;;8.32;57.53;100777.81;5094435;28;20062;-75
2021/03/24 09:14:09;;;;;;;20.27;11.10;;;;;;;8.10;57.82;100753.03;5093286;28;20043;-75
2021/03/24 09:17:12;;;;;;;21.90;11.82;;;;;;;8.17;58.52;100767.81;5094134;28;20079;-76
2021/03/24 09:20:18;;;;;;;19.05;11.40;;;;;;;8.22;58.13;100765.84;5094412;28;20032;-76
2021/03/24 09:23:08;;;;;;;17.15;9.10;;;;;;;8.23;58.27;100772.88;5094608;28;20035;-76
2021/03/24 09:25:52;;;;;;;15.52;9.57;;;;;;;8.07;58.78;100775.31;5094066;28;20494;-77
2021/03/24 09:28:31;;;;;;;15.55;8.52;;;;;;;8.07;58.39;100758.50;5094335;28;20032;-76
2021/03/24 09:31:06;;;;;;;14.27;8.10;;;;;;;8.08;58.56;100770.84;5093319;28;20024;-75
2021/03/24 09:33:56;;;;;;;13.57;7.10;;;;;;;8.16;57.90;100774.06;5094206;28;20031;-77
2021/03/24 09:36:31;;;;;;;13.10;7.20;;;;;;;8.01;57.84;100746.34;5094114;28;20429;-75
2021/03/24 09:39:00;;;;;;;12.45;6.78;;;;;;;8.06;57.41;100784.19;5094520;28;20387;-76
2021/03/24 09:41:42;;;;;;;12.90;6.90;;;;;;;8.06;56.92;100784.19;5094211;28;20024;-77
2021/03/24 09:44:20;;;;;;;14.98;6.10;;;;;;;7.92;56.71;100782.13;5094560;28;20043;-76
2021/03/24 09:46:51;;;;;;;11.20;6.75;;;;;;;7.87;57.38;100784.09;5094264;28;20054;-75
2021/03/24 09:49:19;;;;;;;10.65;6.72;;;;;;;7.85;57.01;100780.63;5094036;28;20024;-75
2021/03/24 09:52:23;;;;;;;10.05;5.55;;;;;;;7.66;56.55;100780.50;5094032;28;20462;-77
2021/03/24 09:55:08;;;;;;;11.93;6.13;;;;;;;7.66;56.17;100795.56;5091890;28;20079;-79
2021/03/24 09:57:46;;;;;;;8.95;5.47;;;;;;;7.69;56.08;100790.13;5093916;28;20260;-76
2021/03/24 10:00:15;;;;;;;11.10;5.40;;;;;;;7.63;56.20;100796.56;5093539;28;20036;-76
2021/03/24 10:02:53;;;;;;;9.68;5.40;;;;;;;7.55;56.32;100793.34;5094021;28;20489;-77
2021/03/24 10:05:38;;;;;;;11.82;5.93;;;;;;;7.18;56.49;100724.91;5093623;28;20115;-75
2021/03/24 10:08:12;;;;;;;10.82;6.10;;;;;;;7.37;56.61;100773.69;5093842;28;20024;-76
2021/03/24 10:10:39;;;;;;;9.80;5.85;;;;;;;7.24;56.59;100743.25;5093451;28;20035;-75
2021/03/24 10:13:25;;;;;;;11.98;5.90;;;;;;;7.09;56.89;100725.25;5093486;28;20052;-76
2021/03/24 10:16:09;;;;;;;10.70;5.78;;;;;;;7.25;56.64;100760.91;5093418;28;20478;-76
2021/03/24 10:18:41;;;;;;;10.10;5.82;;;;;;;7.31;57.04;100781.88;5093500;28;20052;-75
2021/03/24 10:21:18;;;;;;;13.43;6.57;;;;;;;7.27;57.08;100793.53;5093473;28;20515;-76
2021/03/24 10:23:47;;;;;;;11.02;6.28;;;;;;;7.24;57.49;100788.34;5092329;28;20024;-75
2021/03/24 10:26:24;;;;;;;13.30;6.20;;;;;;;7.18;57.72;100785.94;5093292;28;20028;-75
2021/03/24 10:29:10;;;;;;;11.52;6.13;;;;;;;7.21;57.72;100783.16;5093718;28;20080;-75
2021/03/24 10:31:39;;;;;;;11.90;6.57;;;;;;;7.14;57.88;100778.97;5093161;28;20039;-76
2021/03/24 10:34:21;;;;;;;14.32;6.78;;;;;;;6.83;57.76;100724.44;5093275;28;20387;-76
2021/03/24 10:36:46;;;;;;;13.23;6.22;;;;;;;7.18;57.87;100788.59;5093324;28;20028;-76
2021/03/24 10:39:33;;;;;;;11.27;6.40;;;;;;;7.20;57.74;100778.78;5093248;28;20028;-77
2021/03/24 10:42:01;;;;;;;11.88;6.03;;;;;;;7.08;57.49;100739.44;5093479;28;20028;-76
2021/03/24 10:44:42;;;;;;;14.32;6.90;;;;;;;7.42;57.50;100782.31;5091373;28;20509;-77
2021/03/24 10:47:16;;;;;;;13.55;6.57;;;;;;;7.58;56.76;100776.44;5093136;28;20078;-76
2021/03/24 10:50:02;;;;;;;13.35;6.35;;;;;;;7.63;56.44;100779.78;5092804;28;20027;-75
2021/03/24 10:52:54;;;;;;;9.73;6.25;;;;;;;7.64;56.46;100766.44;5092900;28;20089;-75
2021/03/24 10:55:21;;;;;;;11.63;5.97;;;;;;;7.74;56.07;100766.94;5092300;28;20118;-76
2021/03/24 10:57:56;;;;;;;9.23;5.72;;;;;;;7.79;55.77;100774.69;5093198;28;20089;-76
2021/03/24 11:00:28;;;;;;;13.88;6.10;;;;;;;7.78;56.05;100767.66;5092918;28;20440;-74
2021/03/24 11:03:12;;;;;;;11.93;6.30;;;;;;;7.84;55.62;100773.59;5093374;28;20036;-76
2021/03/24 11:05:38;;;;;;;12.15;6.10;;;;;;;7.85;55.56;100770.00;5092617;28;20085;-76
2021/03/24 11:08:31;;;;;;;10.70;6.13;;;;;;;7.93;55.06;100767.91;5092746;28;20071;-75
2021/03/24 11:10:56;;;;;;;10.52;6.13;;;;;;;7.94;55.05;100764.31;5093055;28;20024;-75
2021/03/24 11:13:28;;;;;;;16.05;6.60;;;;;;;7.99;55.26;100769.44;5092405;28;20035;-76
2021/03/24 11:15:56;;;;;;;13.00;6.35;;;;;;;7.91;55.14;100768.88;5093132;28;20039;-76
2021/03/24 11:18:31;;;;;;;10.98;6.38;;;;;;;7.67;55.86;100771.63;5092222;28;20097;-77
2021/03/24 11:21:00;;;;;;;13.05;6.63;;;;;;;7.52;56.45;100771.34;5091849;28;20402;-75
2021/03/24 11:23:35;;;;;;;12.20;6.30;;;;;;;7.57;56.31;100770.25;5092662;28;20024;-75
2021/03/24 11:26:23;;;;;;;11.93;6.47;;;;;;;7.37;56.79;100760.41;5093089;28;20024;-76
2021/03/24 11:28:56;;;;;;;11.55;6.25;;;;;;;7.47;56.91;100760.91;5092663;28;20497;-75
2021/03/24 11:31:41;;;;;;;15.23;6.45;;;;;;;7.49;56.79;100766.16;5092601;28;20427;-75
2021/03/24 11:34:12;;;;;;;11.40;6.38;;;;;;;7.26;57.16;100717.50;5091411;28;20040;-75
2021/03/24 11:36:59;;;;;;;11.20;6.95;;;;;;;7.40;57.48;100752.31;5092977;28;20134;-77
2021/03/24 11:39:49;;;;;;;12.38;6.55;;;;;;;7.43;57.12;100736.31;5092329;28;20113;-76
2021/03/24 11:42:19;;;;;;;11.63;6.63;;;;;;;7.62;56.67;100740.84;5094913;28;20397;-77
2021/03/24 11:44:47;;;;;;;13.50;6.13;;;;;;;7.48;55.84;100688.31;5094946;28;20505;-76
2021/03/24 11:47:28;;;;;;;12.18;7.05;;;;;;;7.88;56.26;100748.63;5096250;28;20028;-76
2021/03/24 11:50:20;;;;;;;13.30;7.40;;;;;;;7.94;55.68;100735.09;5096776;28;20029;-76
2021/03/24 11:53:08;;;;;;;11.70;6.63;;;;;;;8.13;56.13;100748.47;5095991;28;20024;-75
2021/03/24 11:55:49;;;;;;;11.43;6.45;;;;;;;8.44;54.90;100740.09;5095758;28;20508;-75
2021/03/24 11:58:29;;;;;;;12.23;6.28;;;;;;;8.45;54.39;100743.59;5095883;28;20120;-76
2021/03/24 12:01:05;;;;;;;11.98;7.00;;;;;;;8.49;54.51;100743.41;5096181;28;20028;-76
2021/03/24 12:03:52;;;;;;;13.05;6.63;;;;;;;8.56;54.35;100730.69;5095982;28;20028;-75
2021/03/24 12:06:23;;;;;;;11.57;6.70;;;;;;;8.65;53.72;100713.47;5095928;28;20035;-76